sensor_id;sensor_type;location;lat;lon;timestamp;P1;P2;P0
65803;PMS5003;65658;63.740;34.316;2023-02-19T00:03:13;147;192;
65803;PMS5003;65658;63.740;34.316;2023-02-19T00:07:16;143;170;
65803;PMS5003;65658;63.740;34.316;2023-02-19T00:11:11;111;138;
65803;PMS5003;65658;63.740;34.316;2023-02-19T00:15:15;95;115;
65803;PMS5003;65658;63.740;34.316;2023-02-19T00:19:11;91;114;
65803;PMS5003;65658;63.740;34.316;2023-02-19T00:23:06;162;186;
65803;PMS5003;65658;63.740;34.316;2023-02-19T00:26:59;131;156;
65803;PMS5003;65658;63.740;34.316;2023-02-19T00:35:08;144;189;
65803;PMS5003;65658;63.740;34.316;2023-02-19T00:39:23;131;165;
65803;PMS5003;65658;63.740;34.316;2023-02-19T00:43:18;90;114;
65803;PMS5003;65658;63.740;34.316;2023-02-19T00:47:12;93;118;
65803;PMS5003;65658;63.740;34.316;2023-02-19T00:51:17;97;105;
65803;PMS5003;65658;63.740;34.316;2023-02-19T00:55:20;87;107;
65803;PMS5003;65658;63.740;34.316;2023-02-19T00:59:23;128;157;
65803;PMS5003;65658;63.740;34.316;2023-02-19T01:03:28;127;170;
65803;PMS5003;65658;63.740;34.316;2023-02-19T01:07:21;187;235;
65803;PMS5003;65658;63.740;34.316;2023-02-19T01:11:35;172;217;
65803;PMS5003;65658;63.740;34.316;2023-02-19T01:15:33;104;125;
65803;PMS5003;65658;63.740;34.316;2023-02-19T01:19:27;122;142;
65803;PMS5003;65658;63.740;34.316;2023-02-19T01:23:19;153;189;
65803;PMS5003;65658;63.740;34.316;2023-02-19T01:27:24;106;121;
65803;PMS5003;65658;63.740;34.316;2023-02-19T01:31:19;92;124;
65803;PMS5003;65658;63.740;34.316;2023-02-19T01:35:25;181;225;
65803;PMS5003;65658;63.740;34.316;2023-02-19T01:39:29;292;389;
65803;PMS5003;65658;63.740;34.316;2023-02-19T01:43:21;269;353;
65803;PMS5003;65658;63.740;34.316;2023-02-19T01:47:26;213;267;
65803;PMS5003;65658;63.740;34.316;2023-02-19T01:51:29;138;158;
65803;PMS5003;65658;63.740;34.316;2023-02-19T01:55:23;211;267;
65803;PMS5003;65658;63.740;34.316;2023-02-19T01:59:15;380;496;
65803;PMS5003;65658;63.740;34.316;2023-02-19T02:03:18;90;116;
65803;PMS5003;65658;63.740;34.316;2023-02-19T02:07:12;157;197;
65803;PMS5003;65658;63.740;34.316;2023-02-19T02:11:17;162;210;
65803;PMS5003;65658;63.740;34.316;2023-02-19T02:15:11;151;188;
65803;PMS5003;65658;63.740;34.316;2023-02-19T02:19:29;72;99;
65803;PMS5003;65658;63.740;34.316;2023-02-19T02:31:40;178;224;
65803;PMS5003;65658;63.740;34.316;2023-02-19T02:35:39;79;100;
65803;PMS5003;65658;63.740;34.316;2023-02-19T02:39:33;309;398;
65803;PMS5003;65658;63.740;34.316;2023-02-19T02:43:39;52;64;
65803;PMS5003;65658;63.740;34.316;2023-02-19T02:47:37;208;259;
65803;PMS5003;65658;63.740;34.316;2023-02-19T02:51:43;217;277;
65803;PMS5003;65658;63.740;34.316;2023-02-19T02:55:48;89;106;
65803;PMS5003;65658;63.740;34.316;2023-02-19T03:00:05;197;236;
65803;PMS5003;65658;63.740;34.316;2023-02-19T03:04:13;227;281;
65803;PMS5003;65658;63.740;34.316;2023-02-19T03:08:09;90;106;
65803;PMS5003;65658;63.740;34.316;2023-02-19T03:12:13;85;104;
65803;PMS5003;65658;63.740;34.316;2023-02-19T03:20:23;164;203;
65803;PMS5003;65658;63.740;34.316;2023-02-19T03:24:50;174;198;
65803;PMS5003;65658;63.740;34.316;2023-02-19T03:28:45;297;373;
65803;PMS5003;65658;63.740;34.316;2023-02-19T03:33:01;193;228;
65803;PMS5003;65658;63.740;34.316;2023-02-19T03:56:46;59;75;
65803;PMS5003;65658;63.740;34.316;2023-02-19T04:04:43;41;44;
65803;PMS5003;65658;63.740;34.316;2023-02-19T04:08:38;68;86;
65803;PMS5003;65658;63.740;34.316;2023-02-19T04:12:30;37;39;
65803;PMS5003;65658;63.740;34.316;2023-02-19T04:16:35;78;101;
65803;PMS5003;65658;63.740;34.316;2023-02-19T04:20:33;54;67;
65803;PMS5003;65658;63.740;34.316;2023-02-19T04:24:32;36;37;
65803;PMS5003;65658;63.740;34.316;2023-02-19T04:28:36;51;62;
65803;PMS5003;65658;63.740;34.316;2023-02-19T04:32:28;61;77;
65803;PMS5003;65658;63.740;34.316;2023-02-19T04:36:21;42;50;
65803;PMS5003;65658;63.740;34.316;2023-02-19T04:40:12;54;70;
65803;PMS5003;65658;63.740;34.316;2023-02-19T04:44:15;26;26;
65803;PMS5003;65658;63.740;34.316;2023-02-19T04:48:05;33;38;
65803;PMS5003;65658;63.740;34.316;2023-02-19T04:51:57;63;82;
65803;PMS5003;65658;63.740;34.316;2023-02-19T04:55:49;51;60;
65803;PMS5003;65658;63.740;34.316;2023-02-19T05:00:03;64;83;
65803;PMS5003;65658;63.740;34.316;2023-02-19T05:04:07;67;83;
65803;PMS5003;65658;63.740;34.316;2023-02-19T05:08:01;100;120;
65803;PMS5003;65658;63.740;34.316;2023-02-19T05:11:55;60;77;
65803;PMS5003;65658;63.740;34.316;2023-02-19T05:15:52;42;49;
65803;PMS5003;65658;63.740;34.316;2023-02-19T05:20:12;45;56;
65803;PMS5003;65658;63.740;34.316;2023-02-19T05:24:01;44;60;
65803;PMS5003;65658;63.740;34.316;2023-02-19T05:27:55;62;83;
65803;PMS5003;65658;63.740;34.316;2023-02-19T05:31:48;111;131;
65803;PMS5003;65658;63.740;34.316;2023-02-19T05:35:41;70;95;
65803;PMS5003;65658;63.740;34.316;2023-02-19T05:39:36;86;107;
65803;PMS5003;65658;63.740;34.316;2023-02-19T05:43:27;130;163;
65803;PMS5003;65658;63.740;34.316;2023-02-19T05:47:52;166;209;
65803;PMS5003;65658;63.740;34.316;2023-02-19T05:51:55;86;103;
65803;PMS5003;65658;63.740;34.316;2023-02-19T05:55:48;144;168;
65803;PMS5003;65658;63.740;34.316;2023-02-19T05:59:40;127;150;
65803;PMS5003;65658;63.740;34.316;2023-02-19T06:03:33;86;102;
65803;PMS5003;65658;63.740;34.316;2023-02-19T06:07:27;68;87;
65803;PMS5003;65658;63.740;34.316;2023-02-19T06:11:18;103;124;
65803;PMS5003;65658;63.740;34.316;2023-02-19T06:15:10;70;95;
65803;PMS5003;65658;63.740;34.316;2023-02-19T06:19:13;94;113;
65803;PMS5003;65658;63.740;34.316;2023-02-19T06:23:07;132;165;
65803;PMS5003;65658;63.740;34.316;2023-02-19T06:27:00;127;147;
65803;PMS5003;65658;63.740;34.316;2023-02-19T06:30:53;73;96;
65803;PMS5003;65658;63.740;34.316;2023-02-19T06:34:45;54;69;
65803;PMS5003;65658;63.740;34.316;2023-02-19T06:38:48;69;91;
65803;PMS5003;65658;63.740;34.316;2023-02-19T06:42:39;51;61;
65803;PMS5003;65658;63.740;34.316;2023-02-19T06:50:43;82;104;
65803;PMS5003;65658;63.740;34.316;2023-02-19T06:54:46;91;110;
65803;PMS5003;65658;63.740;34.316;2023-02-19T06:58:50;121;154;
65803;PMS5003;65658;63.740;34.316;2023-02-19T07:02:42;104;124;
65803;PMS5003;65658;63.740;34.316;2023-02-19T07:06:37;175;216;
65803;PMS5003;65658;63.740;34.316;2023-02-19T07:10:30;57;72;
65803;PMS5003;65658;63.740;34.316;2023-02-19T07:14:21;57;70;
65803;PMS5003;65658;63.740;34.316;2023-02-19T07:18:14;68;92;
65803;PMS5003;65658;63.740;34.316;2023-02-19T07:22:08;57;75;
65803;PMS5003;65658;63.740;34.316;2023-02-19T07:26:03;62;82;
65803;PMS5003;65658;63.740;34.316;2023-02-19T07:29:57;192;232;
65803;PMS5003;65658;63.740;34.316;2023-02-19T07:33:52;61;84;
65803;PMS5003;65658;63.740;34.316;2023-02-19T07:37:45;61;82;
65803;PMS5003;65658;63.740;34.316;2023-02-19T07:41:49;57;72;
65803;PMS5003;65658;63.740;34.316;2023-02-19T07:45:41;53;65;
65803;PMS5003;65658;63.740;34.316;2023-02-19T07:49:35;166;203;
65803;PMS5003;65658;63.740;34.316;2023-02-19T07:53:28;39;46;
65803;PMS5003;65658;63.740;34.316;2023-02-19T07:57:21;56;73;
65803;PMS5003;65658;63.740;34.316;2023-02-19T08:05:22;57;69;
65803;PMS5003;65658;63.740;34.316;2023-02-19T08:09:17;52;67;
65803;PMS5003;65658;63.740;34.316;2023-02-19T08:13:19;57;73;
65803;PMS5003;65658;63.740;34.316;2023-02-19T08:17:13;44;51;
65803;PMS5003;65658;63.740;34.316;2023-02-19T08:21:05;62;81;
65803;PMS5003;65658;63.740;34.316;2023-02-19T08:25:00;200;247;
65803;PMS5003;65658;63.740;34.316;2023-02-19T08:28:52;86;105;
65803;PMS5003;65658;63.740;34.316;2023-02-19T08:33:08;216;261;
65803;PMS5003;65658;63.740;34.316;2023-02-19T08:37:13;91;107;
65803;PMS5003;65658;63.740;34.316;2023-02-19T08:41:07;22;23;
65803;PMS5003;65658;63.740;34.316;2023-02-19T08:45:28;26;29;
65803;PMS5003;65658;63.740;34.316;2023-02-19T08:49:18;46;62;
65803;PMS5003;65658;63.740;34.316;2023-02-19T08:53:42;26;29;
65803;PMS5003;65658;63.740;34.316;2023-02-19T08:57:55;58;73;
65803;PMS5003;65658;63.740;34.316;2023-02-19T09:01:47;65;86;
65803;PMS5003;65658;63.740;34.316;2023-02-19T09:05:53;118;123;
65803;PMS5003;65658;63.740;34.316;2023-02-19T09:09:44;65;88;
65803;PMS5003;65658;63.740;34.316;2023-02-19T09:13:35;58;73;
65803;PMS5003;65658;63.740;34.316;2023-02-19T09:17:27;25;26;
65803;PMS5003;65658;63.740;34.316;2023-02-19T09:21:26;27;29;
65803;PMS5003;65658;63.740;34.316;2023-02-19T09:25:14;8;9;
65803;PMS5003;65658;63.740;34.316;2023-02-19T09:29:15;21;23;
65803;PMS5003;65658;63.740;34.316;2023-02-19T09:33:04;20;21;
65803;PMS5003;65658;63.740;34.316;2023-02-19T09:36:51;12;13;
65803;PMS5003;65658;63.740;34.316;2023-02-19T09:40:49;24;27;
65803;PMS5003;65658;63.740;34.316;2023-02-19T09:44:51;9;9;
65803;PMS5003;65658;63.740;34.316;2023-02-19T09:48:37;34;38;
65803;PMS5003;65658;63.740;34.316;2023-02-19T09:52:52;10;10;
65803;PMS5003;65658;63.740;34.316;2023-02-19T09:56:40;24;24;
65803;PMS5003;65658;63.740;34.316;2023-02-19T10:00:30;33;34;
65803;PMS5003;65658;63.740;34.316;2023-02-19T10:04:20;12;13;
65803;PMS5003;65658;63.740;34.316;2023-02-19T10:08:19;49;58;
65803;PMS5003;65658;63.740;34.316;2023-02-19T10:12:13;48;65;
65803;PMS5003;65658;63.740;34.316;2023-02-19T10:16:34;24;24;
65803;PMS5003;65658;63.740;34.316;2023-02-19T10:20:19;21;21;
65803;PMS5003;65658;63.740;34.316;2023-02-19T10:24:29;12;12;
65803;PMS5003;65658;63.740;34.316;2023-02-19T10:28:17;5;5;
65803;PMS5003;65658;63.740;34.316;2023-02-19T10:36:35;7;7;
65803;PMS5003;65658;63.740;34.316;2023-02-19T10:40:35;23;26;
65803;PMS5003;65658;63.740;34.316;2023-02-19T10:52:55;51;65;
65803;PMS5003;65658;63.740;34.316;2023-02-19T10:56:49;80;99;
65803;PMS5003;65658;63.740;34.316;2023-02-19T11:00:41;41;45;
65803;PMS5003;65658;63.740;34.316;2023-02-19T11:04:33;10;10;
65803;PMS5003;65658;63.740;34.316;2023-02-19T11:08:20;10;10;
65803;PMS5003;65658;63.740;34.316;2023-02-19T11:12:08;12;13;
65803;PMS5003;65658;63.740;34.316;2023-02-19T11:15:56;9;13;
65803;PMS5003;65658;63.740;34.316;2023-02-19T11:19:43;8;8;
65803;PMS5003;65658;63.740;34.316;2023-02-19T11:23:44;5;5;
65803;PMS5003;65658;63.740;34.316;2023-02-19T11:27:31;5;6;
65803;PMS5003;65658;63.740;34.316;2023-02-19T11:31:31;8;9;
65803;PMS5003;65658;63.740;34.316;2023-02-19T11:35:30;5;6;
65803;PMS5003;65658;63.740;34.316;2023-02-19T11:39:19;6;6;
65803;PMS5003;65658;63.740;34.316;2023-02-19T11:56:45;8;8;
65803;PMS5003;65658;63.740;34.316;2023-02-19T12:16:26;9;9;
65803;PMS5003;65658;63.740;34.316;2023-02-19T12:21:09;6;6;
65803;PMS5003;65658;63.740;34.316;2023-02-19T12:28:38;8;8;
65803;PMS5003;65658;63.740;34.316;2023-02-19T12:36:24;5;5;
65803;PMS5003;65658;63.740;34.316;2023-02-19T12:52:29;6;6;
65803;PMS5003;65658;63.740;34.316;2023-02-19T12:56:25;6;6;
65803;PMS5003;65658;63.740;34.316;2023-02-19T13:00:40;7;7;
65803;PMS5003;65658;63.740;34.316;2023-02-19T13:04:41;8;8;
65803;PMS5003;65658;63.740;34.316;2023-02-19T13:08:45;9;9;
65803;PMS5003;65658;63.740;34.316;2023-02-19T13:12:45;6;6;
65803;PMS5003;65658;63.740;34.316;2023-02-19T13:16:36;8;8;
65803;PMS5003;65658;63.740;34.316;2023-02-19T13:24:34;6;6;
65803;PMS5003;65658;63.740;34.316;2023-02-19T13:28:28;5;5;
65803;PMS5003;65658;63.740;34.316;2023-02-19T13:36:25;4;4;
65803;PMS5003;65658;63.740;34.316;2023-02-19T13:40:57;8;8;
65803;PMS5003;65658;63.740;34.316;2023-02-19T13:45:43;11;12;
65803;PMS5003;65658;63.740;34.316;2023-02-19T13:50:11;9;11;
65803;PMS5003;65658;63.740;34.316;2023-02-19T14:02:39;11;11;
65803;PMS5003;65658;63.740;34.316;2023-02-19T14:11:06;8;9;
65803;PMS5003;65658;63.740;34.316;2023-02-19T14:14:55;9;9;
65803;PMS5003;65658;63.740;34.316;2023-02-19T14:23:49;13;13;
65803;PMS5003;65658;63.740;34.316;2023-02-19T14:27:51;44;51;
65803;PMS5003;65658;63.740;34.316;2023-02-19T14:31:38;25;25;
65803;PMS5003;65658;63.740;34.316;2023-02-19T14:40:54;15;15;
65803;PMS5003;65658;63.740;34.316;2023-02-19T14:45:04;18;19;
65803;PMS5003;65658;63.740;34.316;2023-02-19T14:48:52;19;25;
65803;PMS5003;65658;63.740;34.316;2023-02-19T14:53:13;19;19;
65803;PMS5003;65658;63.740;34.316;2023-02-19T14:57:46;7;7;
65803;PMS5003;65658;63.740;34.316;2023-02-19T15:02:31;12;14;
65803;PMS5003;65658;63.740;34.316;2023-02-19T15:06:29;15;16;
65803;PMS5003;65658;63.740;34.316;2023-02-19T15:11:16;14;15;
65803;PMS5003;65658;63.740;34.316;2023-02-19T15:15:04;18;18;
65803;PMS5003;65658;63.740;34.316;2023-02-19T15:19:05;7;7;
65803;PMS5003;65658;63.740;34.316;2023-02-19T15:27:10;20;22;
65803;PMS5003;65658;63.740;34.316;2023-02-19T15:35:03;21;21;
65803;PMS5003;65658;63.740;34.316;2023-02-19T15:38:40;22;25;
65803;PMS5003;65658;63.740;34.316;2023-02-19T15:42:28;25;25;
65803;PMS5003;65658;63.740;34.316;2023-02-19T15:46:18;21;21;
65803;PMS5003;65658;63.740;34.316;2023-02-19T15:53:57;38;43;
65803;PMS5003;65658;63.740;34.316;2023-02-19T15:57:47;40;43;
65803;PMS5003;65658;63.740;34.316;2023-02-19T16:01:37;41;47;
65803;PMS5003;65658;63.740;34.316;2023-02-19T16:05:27;53;61;
65803;PMS5003;65658;63.740;34.316;2023-02-19T16:09:27;53;69;
65803;PMS5003;65658;63.740;34.316;2023-02-19T16:13:21;44;49;
65803;PMS5003;65658;63.740;34.316;2023-02-19T16:21:01;43;50;
65803;PMS5003;65658;63.740;34.316;2023-02-19T16:24:56;50;60;
65803;PMS5003;65658;63.740;34.316;2023-02-19T16:28:49;43;47;
65803;PMS5003;65658;63.740;34.316;2023-02-19T16:32:39;41;43;
65803;PMS5003;65658;63.740;34.316;2023-02-19T16:48:08;40;42;
65803;PMS5003;65658;63.740;34.316;2023-02-19T16:51:57;30;33;
65803;PMS5003;65658;63.740;34.316;2023-02-19T16:55:47;37;42;
65803;PMS5003;65658;63.740;34.316;2023-02-19T16:59:36;42;45;
65803;PMS5003;65658;63.740;34.316;2023-02-19T17:03:26;48;56;
65803;PMS5003;65658;63.740;34.316;2023-02-19T17:07:17;48;55;
65803;PMS5003;65658;63.740;34.316;2023-02-19T17:11:11;49;59;
65803;PMS5003;65658;63.740;34.316;2023-02-19T17:15:00;30;36;
65803;PMS5003;65658;63.740;34.316;2023-02-19T17:18:49;39;42;
65803;PMS5003;65658;63.740;34.316;2023-02-19T17:22:49;27;30;
65803;PMS5003;65658;63.740;34.316;2023-02-19T17:26:37;30;34;
65803;PMS5003;65658;63.740;34.316;2023-02-19T17:30:26;26;27;
65803;PMS5003;65658;63.740;34.316;2023-02-19T17:34:14;20;26;
65803;PMS5003;65658;63.740;34.316;2023-02-19T17:38:01;20;26;
65803;PMS5003;65658;63.740;34.316;2023-02-19T17:41:48;20;23;
65803;PMS5003;65658;63.740;34.316;2023-02-19T17:45:34;22;23;
65803;PMS5003;65658;63.740;34.316;2023-02-19T17:49:21;14;17;
65803;PMS5003;65658;63.740;34.316;2023-02-19T17:53:19;13;14;
65803;PMS5003;65658;63.740;34.316;2023-02-19T17:57:06;11;11;
65803;PMS5003;65658;63.740;34.316;2023-02-19T18:00:53;17;17;
65803;PMS5003;65658;63.740;34.316;2023-02-19T18:04:40;16;17;
65803;PMS5003;65658;63.740;34.316;2023-02-19T18:08:26;13;16;
65803;PMS5003;65658;63.740;34.316;2023-02-19T18:12:13;11;11;
65803;PMS5003;65658;63.740;34.316;2023-02-19T18:15:59;11;11;
65803;PMS5003;65658;63.740;34.316;2023-02-19T18:19:46;13;13;
65803;PMS5003;65658;63.740;34.316;2023-02-19T18:23:32;15;18;
65803;PMS5003;65658;63.740;34.316;2023-02-19T18:27:19;19;21;
65803;PMS5003;65658;63.740;34.316;2023-02-19T18:31:06;18;19;
65803;PMS5003;65658;63.740;34.316;2023-02-19T18:34:55;18;19;
65803;PMS5003;65658;63.740;34.316;2023-02-19T18:38:43;16;18;
65803;PMS5003;65658;63.740;34.316;2023-02-19T18:42:30;16;16;
65803;PMS5003;65658;63.740;34.316;2023-02-19T18:46:19;19;21;
65803;PMS5003;65658;63.740;34.316;2023-02-19T18:50:05;12;12;
65803;PMS5003;65658;63.740;34.316;2023-02-19T18:53:53;15;15;
65803;PMS5003;65658;63.740;34.316;2023-02-19T18:57:39;15;15;
65803;PMS5003;65658;63.740;34.316;2023-02-19T19:01:26;16;16;
65803;PMS5003;65658;63.740;34.316;2023-02-19T19:05:24;18;18;
65803;PMS5003;65658;63.740;34.316;2023-02-19T19:09:11;13;18;
65803;PMS5003;65658;63.740;34.316;2023-02-19T19:12:57;16;16;
65803;PMS5003;65658;63.740;34.316;2023-02-19T19:16:45;16;18;
65803;PMS5003;65658;63.740;34.316;2023-02-19T19:20:32;15;15;
65803;PMS5003;65658;63.740;34.316;2023-02-19T19:24:19;12;12;
65803;PMS5003;65658;63.740;34.316;2023-02-19T19:28:06;12;13;
65803;PMS5003;65658;63.740;34.316;2023-02-19T19:31:52;12;15;
65803;PMS5003;65658;63.740;34.316;2023-02-19T19:35:39;12;13;
65803;PMS5003;65658;63.740;34.316;2023-02-19T19:39:25;13;15;
65803;PMS5003;65658;63.740;34.316;2023-02-19T19:43:11;12;13;
65803;PMS5003;65658;63.740;34.316;2023-02-19T19:46:57;16;16;
65803;PMS5003;65658;63.740;34.316;2023-02-19T19:50:44;13;15;
65803;PMS5003;65658;63.740;34.316;2023-02-19T19:54:32;13;15;
65803;PMS5003;65658;63.740;34.316;2023-02-19T19:58:19;10;15;
65803;PMS5003;65658;63.740;34.316;2023-02-19T20:02:08;13;15;
65803;PMS5003;65658;63.740;34.316;2023-02-19T20:05:55;13;13;
65803;PMS5003;65658;63.740;34.316;2023-02-19T20:09:46;10;10;
65803;PMS5003;65658;63.740;34.316;2023-02-19T20:13:32;15;16;
65803;PMS5003;65658;63.740;34.316;2023-02-19T20:17:19;16;16;
65803;PMS5003;65658;63.740;34.316;2023-02-19T20:21:08;13;15;
65803;PMS5003;65658;63.740;34.316;2023-02-19T20:24:55;12;12;
65803;PMS5003;65658;63.740;34.316;2023-02-19T20:28:41;13;15;
65803;PMS5003;65658;63.740;34.316;2023-02-19T20:32:28;15;15;
65803;PMS5003;65658;63.740;34.316;2023-02-19T20:36:15;13;15;
65803;PMS5003;65658;63.740;34.316;2023-02-19T20:40:03;12;13;
65803;PMS5003;65658;63.740;34.316;2023-02-19T20:43:49;9;9;
65803;PMS5003;65658;63.740;34.316;2023-02-19T20:47:39;13;13;
65803;PMS5003;65658;63.740;34.316;2023-02-19T20:51:26;10;10;
65803;PMS5003;65658;63.740;34.316;2023-02-19T20:55:12;13;15;
65803;PMS5003;65658;63.740;34.316;2023-02-19T20:58:58;9;10;
65803;PMS5003;65658;63.740;34.316;2023-02-19T21:02:45;9;9;
65803;PMS5003;65658;63.740;34.316;2023-02-19T21:06:32;9;9;
65803;PMS5003;65658;63.740;34.316;2023-02-19T21:10:19;12;12;
65803;PMS5003;65658;63.740;34.316;2023-02-19T21:14:06;10;12;
65803;PMS5003;65658;63.740;34.316;2023-02-19T21:17:53;13;16;
65803;PMS5003;65658;63.740;34.316;2023-02-19T21:21:50;13;15;
65803;PMS5003;65658;63.740;34.316;2023-02-19T21:25:36;13;16;
65803;PMS5003;65658;63.740;34.316;2023-02-19T21:29:23;36;36;
65803;PMS5003;65658;63.740;34.316;2023-02-19T21:33:11;19;21;
65803;PMS5003;65658;63.740;34.316;2023-02-19T21:36:58;16;19;
65803;PMS5003;65658;63.740;34.316;2023-02-19T21:40:45;13;15;
65803;PMS5003;65658;63.740;34.316;2023-02-19T21:44:31;13;15;
65803;PMS5003;65658;63.740;34.316;2023-02-19T21:48:19;21;21;
65803;PMS5003;65658;63.740;34.316;2023-02-19T21:52:06;18;18;
65803;PMS5003;65658;63.740;34.316;2023-02-19T21:55:53;12;13;
65803;PMS5003;65658;63.740;34.316;2023-02-19T21:59:39;13;15;
65803;PMS5003;65658;63.740;34.316;2023-02-19T22:03:26;19;19;
65803;PMS5003;65658;63.740;34.316;2023-02-19T22:07:13;16;16;
65803;PMS5003;65658;63.740;34.316;2023-02-19T22:10:59;12;13;
65803;PMS5003;65658;63.740;34.316;2023-02-19T22:14:45;12;13;
65803;PMS5003;65658;63.740;34.316;2023-02-19T22:18:32;13;16;
65803;PMS5003;65658;63.740;34.316;2023-02-19T22:22:18;9;10;
65803;PMS5003;65658;63.740;34.316;2023-02-19T22:26:04;10;12;
65803;PMS5003;65658;63.740;34.316;2023-02-19T22:29:51;10;10;
65803;PMS5003;65658;63.740;34.316;2023-02-19T22:33:38;13;15;
65803;PMS5003;65658;63.740;34.316;2023-02-19T22:37:24;9;9;
65803;PMS5003;65658;63.740;34.316;2023-02-19T22:41:12;12;13;
65803;PMS5003;65658;63.740;34.316;2023-02-19T22:44:59;10;12;
65803;PMS5003;65658;63.740;34.316;2023-02-19T22:48:46;12;13;
65803;PMS5003;65658;63.740;34.316;2023-02-19T22:52:33;19;19;
65803;PMS5003;65658;63.740;34.316;2023-02-19T22:56:19;21;21;
65803;PMS5003;65658;63.740;34.316;2023-02-19T23:00:14;15;15;
65803;PMS5003;65658;63.740;34.316;2023-02-19T23:04:00;21;25;
65803;PMS5003;65658;63.740;34.316;2023-02-19T23:07:47;13;13;
65803;PMS5003;65658;63.740;34.316;2023-02-19T23:11:36;22;30;
65803;PMS5003;65658;63.740;34.316;2023-02-19T23:15:24;22;24;
65803;PMS5003;65658;63.740;34.316;2023-02-19T23:19:12;18;19;
65803;PMS5003;65658;63.740;34.316;2023-02-19T23:22:59;18;19;
65803;PMS5003;65658;63.740;34.316;2023-02-19T23:26:47;15;16;
65803;PMS5003;65658;63.740;34.316;2023-02-19T23:30:34;18;18;
65803;PMS5003;65658;63.740;34.316;2023-02-19T23:34:20;18;19;
65803;PMS5003;65658;63.740;34.316;2023-02-19T23:38:08;18;19;
65803;PMS5003;65658;63.740;34.316;2023-02-19T23:41:55;18;18;
65803;PMS5003;65658;63.740;34.316;2023-02-19T23:45:44;18;18;
65803;PMS5003;65658;63.740;34.316;2023-02-19T23:49:30;16;18;
65803;PMS5003;65658;63.740;34.316;2023-02-19T23:53:17;18;19;
65803;PMS5003;65658;63.740;34.316;2023-02-19T23:57:04;19;24;
